sensor_id;sensor_type;location;lat;lon;timestamp;temperature;humidity
19906;DHT22;10115;50.906;4.438;2023-01-26T00:01:46;1.80;99.90
19906;DHT22;10115;50.906;4.438;2023-01-26T00:04:12;1.80;99.90
19906;DHT22;10115;50.906;4.438;2023-01-26T00:06:37;1.70;99.90
19906;DHT22;10115;50.906;4.438;2023-01-26T00:09:04;1.60;99.90
19906;DHT22;10115;50.906;4.438;2023-01-26T00:11:29;1.50;99.90
19906;DHT22;10115;50.906;4.438;2023-01-26T00:13:57;1.50;99.90
19906;DHT22;10115;50.906;4.438;2023-01-26T00:16:24;1.50;99.90
19906;DHT22;10115;50.906;4.438;2023-01-26T00:18:50;1.50;99.90
19906;DHT22;10115;50.906;4.438;2023-01-26T00:21:18;1.40;99.90
19906;DHT22;10115;50.906;4.438;2023-01-26T00:23:45;1.60;99.90
19906;DHT22;10115;50.906;4.438;2023-01-26T00:26:15;1.60;99.90
19906;DHT22;10115;50.906;4.438;2023-01-26T00:28:41;1.50;99.90
19906;DHT22;10115;50.906;4.438;2023-01-26T00:31:12;1.30;99.90
19906;DHT22;10115;50.906;4.438;2023-01-26T00:33:38;1.30;99.90
19906;DHT22;10115;50.906;4.438;2023-01-26T00:36:04;1.30;99.90
19906;DHT22;10115;50.906;4.438;2023-01-26T00:38:30;1.30;99.90
19906;DHT22;10115;50.906;4.438;2023-01-26T00:40:57;1.30;99.90
19906;DHT22;10115;50.906;4.438;2023-01-26T00:43:23;1.20;99.90
19906;DHT22;10115;50.906;4.438;2023-01-26T00:45:49;1.10;99.90
19906;DHT22;10115;50.906;4.438;2023-01-26T00:48:15;1.10;99.90
19906;DHT22;10115;50.906;4.438;2023-01-26T00:50:41;1.10;99.90
19906;DHT22;10115;50.906;4.438;2023-01-26T00:53:07;1.10;99.90
19906;DHT22;10115;50.906;4.438;2023-01-26T00:55:35;1.10;99.90
19906;DHT22;10115;50.906;4.438;2023-01-26T00:58:03;1.10;99.90
19906;DHT22;10115;50.906;4.438;2023-01-26T01:00:30;1.30;99.90
19906;DHT22;10115;50.906;4.438;2023-01-26T01:02:56;1.30;99.90
19906;DHT22;10115;50.906;4.438;2023-01-26T01:05:23;1.40;99.90
19906;DHT22;10115;50.906;4.438;2023-01-26T01:07:49;1.30;99.90
19906;DHT22;10115;50.906;4.438;2023-01-26T01:10:15;1.40;99.90
19906;DHT22;10115;50.906;4.438;2023-01-26T01:12:41;1.50;99.90
19906;DHT22;10115;50.906;4.438;2023-01-26T01:15:07;1.40;99.90
19906;DHT22;10115;50.906;4.438;2023-01-26T01:17:34;1.60;99.90
19906;DHT22;10115;50.906;4.438;2023-01-26T01:20:01;1.70;99.90
19906;DHT22;10115;50.906;4.438;2023-01-26T01:22:28;1.70;99.90
19906;DHT22;10115;50.906;4.438;2023-01-26T01:24:53;1.40;99.90
19906;DHT22;10115;50.906;4.438;2023-01-26T01:27:19;1.30;99.90
19906;DHT22;10115;50.906;4.438;2023-01-26T01:29:45;1.20;99.90
19906;DHT22;10115;50.906;4.438;2023-01-26T01:32:10;1.00;99.90
19906;DHT22;10115;50.906;4.438;2023-01-26T01:34:36;1.10;99.90
19906;DHT22;10115;50.906;4.438;2023-01-26T01:37:02;1.00;99.90
19906;DHT22;10115;50.906;4.438;2023-01-26T01:39:27;1.10;99.90
19906;DHT22;10115;50.906;4.438;2023-01-26T01:41:56;1.10;99.90
19906;DHT22;10115;50.906;4.438;2023-01-26T01:44:23;1.30;99.90
19906;DHT22;10115;50.906;4.438;2023-01-26T01:49:18;1.50;99.90
19906;DHT22;10115;50.906;4.438;2023-01-26T01:54:28;1.50;99.90
19906;DHT22;10115;50.906;4.438;2023-01-26T01:56:57;1.60;99.90
19906;DHT22;10115;50.906;4.438;2023-01-26T01:59:24;1.50;99.90
19906;DHT22;10115;50.906;4.438;2023-01-26T02:01:51;1.60;99.90
19906;DHT22;10115;50.906;4.438;2023-01-26T02:04:18;1.50;99.90
19906;DHT22;10115;50.906;4.438;2023-01-26T02:06:48;1.30;99.90
19906;DHT22;10115;50.906;4.438;2023-01-26T02:09:15;1.30;99.90
19906;DHT22;10115;50.906;4.438;2023-01-26T02:12:01;1.30;99.90
19906;DHT22;10115;50.906;4.438;2023-01-26T02:14:29;1.20;99.90
19906;DHT22;10115;50.906;4.438;2023-01-26T02:16:56;1.30;99.90
19906;DHT22;10115;50.906;4.438;2023-01-26T02:22:09;1.70;99.90
19906;DHT22;10115;50.906;4.438;2023-01-26T02:24:37;1.50;99.90
19906;DHT22;10115;50.906;4.438;2023-01-26T02:27:04;1.30;99.90
19906;DHT22;10115;50.906;4.438;2023-01-26T02:29:30;1.40;99.90
19906;DHT22;10115;50.906;4.438;2023-01-26T02:31:56;1.40;99.90
19906;DHT22;10115;50.906;4.438;2023-01-26T02:34:22;1.30;99.90
19906;DHT22;10115;50.906;4.438;2023-01-26T02:36:59;1.30;99.90
19906;DHT22;10115;50.906;4.438;2023-01-26T02:39:48;1.40;99.90
19906;DHT22;10115;50.906;4.438;2023-01-26T02:42:18;1.50;99.90
19906;DHT22;10115;50.906;4.438;2023-01-26T02:45:02;1.50;99.90
19906;DHT22;10115;50.906;4.438;2023-01-26T02:47:28;1.40;99.90
19906;DHT22;10115;50.906;4.438;2023-01-26T02:49:54;1.50;99.90
19906;DHT22;10115;50.906;4.438;2023-01-26T02:52:24;1.50;99.90
19906;DHT22;10115;50.906;4.438;2023-01-26T02:54:51;1.60;99.90
19906;DHT22;10115;50.906;4.438;2023-01-26T02:57:36;1.60;99.90
19906;DHT22;10115;50.906;4.438;2023-01-26T03:00:05;1.70;99.90
19906;DHT22;10115;50.906;4.438;2023-01-26T03:02:31;1.80;99.90
19906;DHT22;10115;50.906;4.438;2023-01-26T03:04:57;1.90;99.90
19906;DHT22;10115;50.906;4.438;2023-01-26T03:07:22;1.90;99.90
19906;DHT22;10115;50.906;4.438;2023-01-26T03:09:48;2.00;99.90
19906;DHT22;10115;50.906;4.438;2023-01-26T03:12:14;1.80;99.90
19906;DHT22;10115;50.906;4.438;2023-01-26T03:14:39;1.80;99.90
19906;DHT22;10115;50.906;4.438;2023-01-26T03:17:05;1.90;99.90
19906;DHT22;10115;50.906;4.438;2023-01-26T03:19:31;1.90;99.90
19906;DHT22;10115;50.906;4.438;2023-01-26T03:22:15;2.00;99.90
19906;DHT22;10115;50.906;4.438;2023-01-26T03:24:59;1.80;99.90
19906;DHT22;10115;50.906;4.438;2023-01-26T03:27:47;1.50;99.90
19906;DHT22;10115;50.906;4.438;2023-01-26T03:30:16;1.60;99.90
19906;DHT22;10115;50.906;4.438;2023-01-26T03:32:42;1.50;99.90
19906;DHT22;10115;50.906;4.438;2023-01-26T03:35:09;1.20;99.90
19906;DHT22;10115;50.906;4.438;2023-01-26T03:37:40;1.10;99.90
19906;DHT22;10115;50.906;4.438;2023-01-26T03:40:09;1.00;99.90
19906;DHT22;10115;50.906;4.438;2023-01-26T03:42:54;0.80;99.90
19906;DHT22;10115;50.906;4.438;2023-01-26T03:45:38;0.70;99.90
19906;DHT22;10115;50.906;4.438;2023-01-26T03:48:22;0.70;99.90
19906;DHT22;10115;50.906;4.438;2023-01-26T03:51:06;0.80;99.90
19906;DHT22;10115;50.906;4.438;2023-01-26T03:53:50;0.70;99.90
19906;DHT22;10115;50.906;4.438;2023-01-26T03:56:34;0.60;99.90
19906;DHT22;10115;50.906;4.438;2023-01-26T03:59:02;0.60;99.90
19906;DHT22;10115;50.906;4.438;2023-01-26T04:01:34;0.60;99.90
19906;DHT22;10115;50.906;4.438;2023-01-26T04:04:00;0.70;99.90
19906;DHT22;10115;50.906;4.438;2023-01-26T04:06:46;0.70;99.90
19906;DHT22;10115;50.906;4.438;2023-01-26T04:09:31;0.70;99.90
19906;DHT22;10115;50.906;4.438;2023-01-26T04:12:01;0.70;99.90
19906;DHT22;10115;50.906;4.438;2023-01-26T04:14:26;0.70;99.90
19906;DHT22;10115;50.906;4.438;2023-01-26T04:17:11;0.70;99.90
19906;DHT22;10115;50.906;4.438;2023-01-26T04:19:55;0.60;99.90
19906;DHT22;10115;50.906;4.438;2023-01-26T04:22:40;0.60;99.90
19906;DHT22;10115;50.906;4.438;2023-01-26T04:25:16;0.60;99.90
19906;DHT22;10115;50.906;4.438;2023-01-26T04:27:43;0.60;99.90
19906;DHT22;10115;50.906;4.438;2023-01-26T04:30:11;0.60;99.90
19906;DHT22;10115;50.906;4.438;2023-01-26T04:32:37;0.70;99.90
19906;DHT22;10115;50.906;4.438;2023-01-26T04:35:04;0.70;99.90
19906;DHT22;10115;50.906;4.438;2023-01-26T04:37:29;0.70;99.90
19906;DHT22;10115;50.906;4.438;2023-01-26T04:39:55;0.70;99.90
19906;DHT22;10115;50.906;4.438;2023-01-26T04:42:21;0.70;99.90
19906;DHT22;10115;50.906;4.438;2023-01-26T04:44:51;0.70;99.90
19906;DHT22;10115;50.906;4.438;2023-01-26T04:47:18;0.70;99.90
19906;DHT22;10115;50.906;4.438;2023-01-26T04:49:44;0.70;99.90
19906;DHT22;10115;50.906;4.438;2023-01-26T04:52:10;0.60;99.90
19906;DHT22;10115;50.906;4.438;2023-01-26T04:54:35;0.60;99.90
19906;DHT22;10115;50.906;4.438;2023-01-26T04:57:01;0.70;99.90
19906;DHT22;10115;50.906;4.438;2023-01-26T04:59:27;0.70;99.90
19906;DHT22;10115;50.906;4.438;2023-01-26T05:01:52;0.70;99.90
19906;DHT22;10115;50.906;4.438;2023-01-26T05:04:18;0.80;99.90
19906;DHT22;10115;50.906;4.438;2023-01-26T05:06:44;0.80;99.90
19906;DHT22;10115;50.906;4.438;2023-01-26T05:09:10;0.90;99.90
19906;DHT22;10115;50.906;4.438;2023-01-26T05:11:35;0.80;99.90
19906;DHT22;10115;50.906;4.438;2023-01-26T05:14:01;0.80;99.90
19906;DHT22;10115;50.906;4.438;2023-01-26T05:16:27;0.80;99.90
19906;DHT22;10115;50.906;4.438;2023-01-26T05:18:53;0.80;99.90
19906;DHT22;10115;50.906;4.438;2023-01-26T05:21:19;0.80;99.90
19906;DHT22;10115;50.906;4.438;2023-01-26T05:23:45;0.70;99.90
19906;DHT22;10115;50.906;4.438;2023-01-26T05:26:11;0.70;99.90
19906;DHT22;10115;50.906;4.438;2023-01-26T05:28:36;0.70;99.90
19906;DHT22;10115;50.906;4.438;2023-01-26T05:31:02;0.60;99.90
19906;DHT22;10115;50.906;4.438;2023-01-26T05:33:28;0.60;99.90
19906;DHT22;10115;50.906;4.438;2023-01-26T05:35:53;0.60;99.90
19906;DHT22;10115;50.906;4.438;2023-01-26T05:38:20;0.60;99.90
19906;DHT22;10115;50.906;4.438;2023-01-26T05:40:45;0.60;99.90
19906;DHT22;10115;50.906;4.438;2023-01-26T05:43:11;0.60;99.90
19906;DHT22;10115;50.906;4.438;2023-01-26T05:45:38;0.70;99.90
19906;DHT22;10115;50.906;4.438;2023-01-26T05:48:07;0.70;99.90
19906;DHT22;10115;50.906;4.438;2023-01-26T05:50:32;0.70;99.90
19906;DHT22;10115;50.906;4.438;2023-01-26T05:52:58;0.70;99.90
19906;DHT22;10115;50.906;4.438;2023-01-26T05:55:25;0.70;99.90
19906;DHT22;10115;50.906;4.438;2023-01-26T05:57:51;0.70;99.90
19906;DHT22;10115;50.906;4.438;2023-01-26T06:00:17;0.80;99.90
19906;DHT22;10115;50.906;4.438;2023-01-26T06:02:43;0.80;99.90
19906;DHT22;10115;50.906;4.438;2023-01-26T06:05:09;0.80;99.90
19906;DHT22;10115;50.906;4.438;2023-01-26T06:07:36;0.80;99.90
19906;DHT22;10115;50.906;4.438;2023-01-26T06:10:03;0.80;99.90
19906;DHT22;10115;50.906;4.438;2023-01-26T06:12:29;0.70;99.90
19906;DHT22;10115;50.906;4.438;2023-01-26T06:15:03;0.70;99.90
19906;DHT22;10115;50.906;4.438;2023-01-26T06:17:28;0.70;99.90
19906;DHT22;10115;50.906;4.438;2023-01-26T06:19:55;0.80;99.90
19906;DHT22;10115;50.906;4.438;2023-01-26T06:22:21;0.80;99.90
19906;DHT22;10115;50.906;4.438;2023-01-26T06:24:47;0.80;99.90
19906;DHT22;10115;50.906;4.438;2023-01-26T06:27:14;0.80;99.90
19906;DHT22;10115;50.906;4.438;2023-01-26T06:29:40;0.80;99.90
19906;DHT22;10115;50.906;4.438;2023-01-26T06:32:07;1.00;99.90
19906;DHT22;10115;50.906;4.438;2023-01-26T06:34:34;0.90;99.90
19906;DHT22;10115;50.906;4.438;2023-01-26T06:36:59;0.90;99.90
19906;DHT22;10115;50.906;4.438;2023-01-26T06:39:25;1.10;99.90
19906;DHT22;10115;50.906;4.438;2023-01-26T06:41:51;1.10;99.90
19906;DHT22;10115;50.906;4.438;2023-01-26T06:44:16;1.10;99.90
19906;DHT22;10115;50.906;4.438;2023-01-26T06:46:42;1.10;99.90
19906;DHT22;10115;50.906;4.438;2023-01-26T06:49:08;1.00;99.90
19906;DHT22;10115;50.906;4.438;2023-01-26T06:51:46;0.90;99.90
19906;DHT22;10115;50.906;4.438;2023-01-26T06:54:16;0.90;99.90
19906;DHT22;10115;50.906;4.438;2023-01-26T06:56:42;0.90;99.90
19906;DHT22;10115;50.906;4.438;2023-01-26T06:59:07;1.00;99.90
19906;DHT22;10115;50.906;4.438;2023-01-26T07:01:38;1.00;99.90
19906;DHT22;10115;50.906;4.438;2023-01-26T07:04:06;1.00;99.90
19906;DHT22;10115;50.906;4.438;2023-01-26T07:06:32;1.00;99.90
19906;DHT22;10115;50.906;4.438;2023-01-26T07:08:57;1.00;99.90
19906;DHT22;10115;50.906;4.438;2023-01-26T07:11:23;0.90;99.90
19906;DHT22;10115;50.906;4.438;2023-01-26T07:13:50;0.90;99.90
19906;DHT22;10115;50.906;4.438;2023-01-26T07:16:16;0.90;99.90
19906;DHT22;10115;50.906;4.438;2023-01-26T07:18:42;1.00;99.90
19906;DHT22;10115;50.906;4.438;2023-01-26T07:21:13;1.00;99.90
19906;DHT22;10115;50.906;4.438;2023-01-26T07:23:40;1.10;99.90
19906;DHT22;10115;50.906;4.438;2023-01-26T07:26:07;1.20;99.90
19906;DHT22;10115;50.906;4.438;2023-01-26T07:28:33;1.20;99.90
19906;DHT22;10115;50.906;4.438;2023-01-26T07:31:03;1.20;99.90
19906;DHT22;10115;50.906;4.438;2023-01-26T07:33:30;1.20;99.90
19906;DHT22;10115;50.906;4.438;2023-01-26T07:35:57;1.30;99.90
19906;DHT22;10115;50.906;4.438;2023-01-26T07:38:23;1.20;99.90
19906;DHT22;10115;50.906;4.438;2023-01-26T07:40:49;1.20;99.90
19906;DHT22;10115;50.906;4.438;2023-01-26T07:43:15;1.30;99.90
19906;DHT22;10115;50.906;4.438;2023-01-26T07:45:48;1.30;99.90
19906;DHT22;10115;50.906;4.438;2023-01-26T07:48:16;1.30;99.90
19906;DHT22;10115;50.906;4.438;2023-01-26T07:50:43;1.40;99.90
19906;DHT22;10115;50.906;4.438;2023-01-26T07:53:09;1.50;99.90
19906;DHT22;10115;50.906;4.438;2023-01-26T07:55:37;1.40;99.90
19906;DHT22;10115;50.906;4.438;2023-01-26T07:58:03;1.40;99.90
19906;DHT22;10115;50.906;4.438;2023-01-26T08:00:28;1.50;99.90
19906;DHT22;10115;50.906;4.438;2023-01-26T08:02:54;1.60;99.90
19906;DHT22;10115;50.906;4.438;2023-01-26T08:05:19;1.60;99.90
19906;DHT22;10115;50.906;4.438;2023-01-26T08:07:45;1.60;99.90
19906;DHT22;10115;50.906;4.438;2023-01-26T08:10:11;1.60;99.90
19906;DHT22;10115;50.906;4.438;2023-01-26T08:12:39;1.40;99.90
19906;DHT22;10115;50.906;4.438;2023-01-26T08:15:04;1.30;99.90
19906;DHT22;10115;50.906;4.438;2023-01-26T08:17:30;1.40;99.90
19906;DHT22;10115;50.906;4.438;2023-01-26T08:19:58;1.40;99.90
19906;DHT22;10115;50.906;4.438;2023-01-26T08:22:24;1.40;99.90
19906;DHT22;10115;50.906;4.438;2023-01-26T08:24:50;1.40;99.90
19906;DHT22;10115;50.906;4.438;2023-01-26T08:27:16;1.40;99.90
19906;DHT22;10115;50.906;4.438;2023-01-26T08:29:41;1.50;99.90
19906;DHT22;10115;50.906;4.438;2023-01-26T08:32:07;1.60;99.90
19906;DHT22;10115;50.906;4.438;2023-01-26T08:34:34;1.50;99.90
19906;DHT22;10115;50.906;4.438;2023-01-26T08:37:00;1.50;99.90
19906;DHT22;10115;50.906;4.438;2023-01-26T08:39:26;1.40;99.90
19906;DHT22;10115;50.906;4.438;2023-01-26T08:41:52;1.60;99.90
19906;DHT22;10115;50.906;4.438;2023-01-26T08:44:18;1.50;99.90
19906;DHT22;10115;50.906;4.438;2023-01-26T08:46:43;1.50;99.90
19906;DHT22;10115;50.906;4.438;2023-01-26T08:49:09;1.60;99.90
19906;DHT22;10115;50.906;4.438;2023-01-26T08:51:35;1.70;99.90
19906;DHT22;10115;50.906;4.438;2023-01-26T08:54:03;1.60;99.90
19906;DHT22;10115;50.906;4.438;2023-01-26T08:56:29;1.60;99.90
19906;DHT22;10115;50.906;4.438;2023-01-26T08:58:55;1.60;99.90
19906;DHT22;10115;50.906;4.438;2023-01-26T09:01:20;1.80;99.90
19906;DHT22;10115;50.906;4.438;2023-01-26T09:03:46;1.70;99.90
19906;DHT22;10115;50.906;4.438;2023-01-26T09:06:13;1.70;99.90
19906;DHT22;10115;50.906;4.438;2023-01-26T09:08:39;1.70;99.90
19906;DHT22;10115;50.906;4.438;2023-01-26T09:11:05;1.90;99.90
19906;DHT22;10115;50.906;4.438;2023-01-26T09:13:32;1.80;99.90
19906;DHT22;10115;50.906;4.438;2023-01-26T09:15:57;1.70;99.90
19906;DHT22;10115;50.906;4.438;2023-01-26T09:18:23;2.00;99.90
19906;DHT22;10115;50.906;4.438;2023-01-26T09:20:49;1.90;99.90
19906;DHT22;10115;50.906;4.438;2023-01-26T09:23:16;1.80;99.90
19906;DHT22;10115;50.906;4.438;2023-01-26T09:25:43;1.80;99.90
19906;DHT22;10115;50.906;4.438;2023-01-26T09:28:09;1.80;99.90
19906;DHT22;10115;50.906;4.438;2023-01-26T09:30:35;1.70;99.90
19906;DHT22;10115;50.906;4.438;2023-01-26T09:33:03;1.70;99.90
19906;DHT22;10115;50.906;4.438;2023-01-26T09:35:29;1.80;99.90
19906;DHT22;10115;50.906;4.438;2023-01-26T09:37:55;1.70;99.90
19906;DHT22;10115;50.906;4.438;2023-01-26T09:43:39;1.80;99.90
19906;DHT22;10115;50.906;4.438;2023-01-26T09:51:31;1.80;99.90
19906;DHT22;10115;50.906;4.438;2023-01-26T09:56:42;1.90;99.90
19906;DHT22;10115;50.906;4.438;2023-01-26T10:02:15;2.00;99.90
19906;DHT22;10115;50.906;4.438;2023-01-26T10:04:45;2.00;99.90
19906;DHT22;10115;50.906;4.438;2023-01-26T10:07:14;2.00;99.90
19906;DHT22;10115;50.906;4.438;2023-01-26T10:09:42;2.20;99.90
19906;DHT22;10115;50.906;4.438;2023-01-26T10:14:50;2.20;99.90
19906;DHT22;10115;50.906;4.438;2023-01-26T10:19:59;2.40;99.90
19906;DHT22;10115;50.906;4.438;2023-01-26T10:22:47;2.60;99.90
19906;DHT22;10115;50.906;4.438;2023-01-26T10:25:41;2.90;99.90
19906;DHT22;10115;50.906;4.438;2023-01-26T10:30:43;3.20;99.90
19906;DHT22;10115;50.906;4.438;2023-01-26T10:33:31;3.40;99.90
19906;DHT22;10115;50.906;4.438;2023-01-26T10:35:58;3.50;99.90
19906;DHT22;10115;50.906;4.438;2023-01-26T10:41:22;3.50;99.90
19906;DHT22;10115;50.906;4.438;2023-01-26T10:43:56;3.50;99.90
19906;DHT22;10115;50.906;4.438;2023-01-26T10:46:34;3.50;99.90
19906;DHT22;10115;50.906;4.438;2023-01-26T10:51:39;3.50;99.90
19906;DHT22;10115;50.906;4.438;2023-01-26T10:54:25;3.60;99.90
19906;DHT22;10115;50.906;4.438;2023-01-26T10:56:58;3.70;99.90
19906;DHT22;10115;50.906;4.438;2023-01-26T10:59:33;3.80;99.90
19906;DHT22;10115;50.906;4.438;2023-01-26T11:04:36;3.80;99.90
19906;DHT22;10115;50.906;4.438;2023-01-26T11:09:50;3.90;99.90
19906;DHT22;10115;50.906;4.438;2023-01-26T11:12:18;3.80;99.90
19906;DHT22;10115;50.906;4.438;2023-01-26T11:15:03;3.70;99.90
19906;DHT22;10115;50.906;4.438;2023-01-26T11:17:38;3.70;99.90
19906;DHT22;10115;50.906;4.438;2023-01-26T11:28:45;4.10;99.90
19906;DHT22;10115;50.906;4.438;2023-01-26T11:39:31;4.60;99.90
19906;DHT22;10115;50.906;4.438;2023-01-26T11:42:03;4.50;99.90
19906;DHT22;10115;50.906;4.438;2023-01-26T11:56:04;4.70;99.90
19906;DHT22;10115;50.906;4.438;2023-01-26T11:58:52;4.90;99.90
19906;DHT22;10115;50.906;4.438;2023-01-26T12:01:33;4.80;99.90
19906;DHT22;10115;50.906;4.438;2023-01-26T12:04:00;4.90;99.90
19906;DHT22;10115;50.906;4.438;2023-01-26T12:06:41;4.90;99.90
19906;DHT22;10115;50.906;4.438;2023-01-26T12:09:31;4.90;99.90
19906;DHT22;10115;50.906;4.438;2023-01-26T12:15:05;4.90;99.90
19906;DHT22;10115;50.906;4.438;2023-01-26T12:23:27;5.20;99.90
19906;DHT22;10115;50.906;4.438;2023-01-26T12:26:09;5.30;99.90
19906;DHT22;10115;50.906;4.438;2023-01-26T12:33:37;5.80;99.90
19906;DHT22;10115;50.906;4.438;2023-01-26T12:39:07;5.90;99.90
19906;DHT22;10115;50.906;4.438;2023-01-26T12:46:40;6.30;99.90
19906;DHT22;10115;50.906;4.438;2023-01-26T12:49:31;6.40;99.90
19906;DHT22;10115;50.906;4.438;2023-01-26T12:57:53;6.80;99.90
19906;DHT22;10115;50.906;4.438;2023-01-26T13:00:23;7.00;99.90
19906;DHT22;10115;50.906;4.438;2023-01-26T13:02:55;7.10;99.90
19906;DHT22;10115;50.906;4.438;2023-01-26T13:05:34;7.30;99.90
19906;DHT22;10115;50.906;4.438;2023-01-26T13:11:05;7.80;99.90
19906;DHT22;10115;50.906;4.438;2023-01-26T13:13:33;7.80;99.90
19906;DHT22;10115;50.906;4.438;2023-01-26T13:16:32;8.10;99.90
19906;DHT22;10115;50.906;4.438;2023-01-26T13:19:00;8.00;99.90
19906;DHT22;10115;50.906;4.438;2023-01-26T13:21:43;7.80;99.90
19906;DHT22;10115;50.906;4.438;2023-01-26T13:26:48;7.50;99.90
19906;DHT22;10115;50.906;4.438;2023-01-26T13:29:31;7.60;99.90
19906;DHT22;10115;50.906;4.438;2023-01-26T13:34:56;7.70;99.90
19906;DHT22;10115;50.906;4.438;2023-01-26T13:37:33;7.60;99.90
19906;DHT22;10115;50.906;4.438;2023-01-26T13:43:16;7.40;99.90
19906;DHT22;10115;50.906;4.438;2023-01-26T13:48:39;7.50;99.90
19906;DHT22;10115;50.906;4.438;2023-01-26T13:51:07;7.30;99.90
19906;DHT22;10115;50.906;4.438;2023-01-26T13:56:04;7.10;99.90
19906;DHT22;10115;50.906;4.438;2023-01-26T13:58:30;7.00;99.90
19906;DHT22;10115;50.906;4.438;2023-01-26T14:01:05;7.00;99.90
19906;DHT22;10115;50.906;4.438;2023-01-26T14:03:32;7.00;99.90
19906;DHT22;10115;50.906;4.438;2023-01-26T14:06:09;7.10;99.90
19906;DHT22;10115;50.906;4.438;2023-01-26T14:08:38;7.10;99.90
19906;DHT22;10115;50.906;4.438;2023-01-26T14:11:17;7.20;99.90
19906;DHT22;10115;50.906;4.438;2023-01-26T14:13:47;7.00;99.90
19906;DHT22;10115;50.906;4.438;2023-01-26T14:16:24;7.10;99.90
19906;DHT22;10115;50.906;4.438;2023-01-26T14:21:23;7.30;99.90
19906;DHT22;10115;50.906;4.438;2023-01-26T14:23:55;7.30;99.90
19906;DHT22;10115;50.906;4.438;2023-01-26T14:26:31;7.30;99.90
19906;DHT22;10115;50.906;4.438;2023-01-26T14:28:59;7.30;99.90
19906;DHT22;10115;50.906;4.438;2023-01-26T14:31:28;7.30;99.90
19906;DHT22;10115;50.906;4.438;2023-01-26T14:33:57;7.50;99.90
19906;DHT22;10115;50.906;4.438;2023-01-26T14:36:29;7.40;99.90
19906;DHT22;10115;50.906;4.438;2023-01-26T14:38:57;7.30;99.90
19906;DHT22;10115;50.906;4.438;2023-01-26T14:41:30;7.40;99.90
19906;DHT22;10115;50.906;4.438;2023-01-26T14:44:00;7.40;99.90
19906;DHT22;10115;50.906;4.438;2023-01-26T14:51:57;7.40;99.90
19906;DHT22;10115;50.906;4.438;2023-01-26T14:54:31;7.30;99.90
19906;DHT22;10115;50.906;4.438;2023-01-26T14:57:05;7.20;99.90
19906;DHT22;10115;50.906;4.438;2023-01-26T14:59:36;7.10;99.90
19906;DHT22;10115;50.906;4.438;2023-01-26T15:02:18;7.00;99.90
19906;DHT22;10115;50.906;4.438;2023-01-26T15:13:15;7.00;99.90
19906;DHT22;10115;50.906;4.438;2023-01-26T15:15:45;7.10;99.90
19906;DHT22;10115;50.906;4.438;2023-01-26T15:23:25;7.00;99.90
19906;DHT22;10115;50.906;4.438;2023-01-26T15:25:54;7.10;99.90
19906;DHT22;10115;50.906;4.438;2023-01-26T15:28:24;7.20;99.90
19906;DHT22;10115;50.906;4.438;2023-01-26T15:30:53;7.30;99.90
19906;DHT22;10115;50.906;4.438;2023-01-26T15:33:47;7.20;99.90
19906;DHT22;10115;50.906;4.438;2023-01-26T15:36:33;7.10;99.90
19906;DHT22;10115;50.906;4.438;2023-01-26T15:39:12;7.20;99.90
19906;DHT22;10115;50.906;4.438;2023-01-26T15:41:39;7.30;99.90
19906;DHT22;10115;50.906;4.438;2023-01-26T15:44:07;7.20;99.90
19906;DHT22;10115;50.906;4.438;2023-01-26T15:46:34;7.10;99.90
19906;DHT22;10115;50.906;4.438;2023-01-26T15:48:59;7.10;99.90
19906;DHT22;10115;50.906;4.438;2023-01-26T15:51:25;7.10;99.90
19906;DHT22;10115;50.906;4.438;2023-01-26T15:53:50;7.10;99.90
19906;DHT22;10115;50.906;4.438;2023-01-26T15:56:16;7.00;99.90
19906;DHT22;10115;50.906;4.438;2023-01-26T15:58:42;7.10;99.90
19906;DHT22;10115;50.906;4.438;2023-01-26T16:01:14;7.10;99.90
19906;DHT22;10115;50.906;4.438;2023-01-26T16:03:41;7.00;99.90
19906;DHT22;10115;50.906;4.438;2023-01-26T16:06:32;7.00;99.90
19906;DHT22;10115;50.906;4.438;2023-01-26T16:08:58;7.10;99.90
19906;DHT22;10115;50.906;4.438;2023-01-26T16:11:27;6.90;99.90
19906;DHT22;10115;50.906;4.438;2023-01-26T16:13:54;7.00;99.90
19906;DHT22;10115;50.906;4.438;2023-01-26T16:16:21;6.90;99.90
19906;DHT22;10115;50.906;4.438;2023-01-26T16:18:54;6.90;99.90
19906;DHT22;10115;50.906;4.438;2023-01-26T16:21:23;6.90;99.90
19906;DHT22;10115;50.906;4.438;2023-01-26T16:23:49;6.90;99.90
19906;DHT22;10115;50.906;4.438;2023-01-26T16:26:16;6.90;99.90
19906;DHT22;10115;50.906;4.438;2023-01-26T16:28:43;7.00;99.90
19906;DHT22;10115;50.906;4.438;2023-01-26T16:33:38;7.00;99.90
19906;DHT22;10115;50.906;4.438;2023-01-26T16:36:04;6.90;99.90
19906;DHT22;10115;50.906;4.438;2023-01-26T16:38:29;7.00;99.90
19906;DHT22;10115;50.906;4.438;2023-01-26T16:40:55;6.90;99.90
19906;DHT22;10115;50.906;4.438;2023-01-26T16:43:23;6.90;99.90
19906;DHT22;10115;50.906;4.438;2023-01-26T16:45:51;6.80;99.90
19906;DHT22;10115;50.906;4.438;2023-01-26T16:48:17;6.80;99.90
19906;DHT22;10115;50.906;4.438;2023-01-26T16:50:43;6.80;99.90
19906;DHT22;10115;50.906;4.438;2023-01-26T16:53:29;6.80;99.90
19906;DHT22;10115;50.906;4.438;2023-01-26T16:55:55;6.90;99.90
19906;DHT22;10115;50.906;4.438;2023-01-26T16:58:22;6.90;99.90
19906;DHT22;10115;50.906;4.438;2023-01-26T17:00:51;6.90;99.90
19906;DHT22;10115;50.906;4.438;2023-01-26T17:03:17;6.90;99.90
19906;DHT22;10115;50.906;4.438;2023-01-26T17:05:43;6.90;99.90
19906;DHT22;10115;50.906;4.438;2023-01-26T17:08:08;7.00;99.90
19906;DHT22;10115;50.906;4.438;2023-01-26T17:10:34;7.00;99.90
19906;DHT22;10115;50.906;4.438;2023-01-26T17:13:00;7.00;99.90
19906;DHT22;10115;50.906;4.438;2023-01-26T17:15:26;6.90;99.90
19906;DHT22;10115;50.906;4.438;2023-01-26T17:17:53;6.90;99.90
19906;DHT22;10115;50.906;4.438;2023-01-26T17:20:19;7.00;99.90
19906;DHT22;10115;50.906;4.438;2023-01-26T17:30:39;6.90;99.90
19906;DHT22;10115;50.906;4.438;2023-01-26T17:33:05;6.90;99.90
19906;DHT22;10115;50.906;4.438;2023-01-26T17:35:35;6.90;99.90
19906;DHT22;10115;50.906;4.438;2023-01-26T17:38:06;6.80;99.90
19906;DHT22;10115;50.906;4.438;2023-01-26T17:40:32;6.70;99.90
19906;DHT22;10115;50.906;4.438;2023-01-26T17:43:02;6.70;99.90
19906;DHT22;10115;50.906;4.438;2023-01-26T17:45:33;6.70;99.90
19906;DHT22;10115;50.906;4.438;2023-01-26T17:48:04;6.60;99.90
19906;DHT22;10115;50.906;4.438;2023-01-26T17:50:30;6.60;99.90
19906;DHT22;10115;50.906;4.438;2023-01-26T17:52:58;6.60;99.90
19906;DHT22;10115;50.906;4.438;2023-01-26T17:58:00;6.60;99.90
19906;DHT22;10115;50.906;4.438;2023-01-26T18:03:01;6.70;99.90
19906;DHT22;10115;50.906;4.438;2023-01-26T18:08:02;6.70;99.90
19906;DHT22;10115;50.906;4.438;2023-01-26T18:10:28;6.60;99.90
19906;DHT22;10115;50.906;4.438;2023-01-26T18:12:56;6.50;99.90
19906;DHT22;10115;50.906;4.438;2023-01-26T18:15:22;6.60;99.90
19906;DHT22;10115;50.906;4.438;2023-01-26T18:17:50;6.60;99.90
19906;DHT22;10115;50.906;4.438;2023-01-26T18:20:21;6.70;99.90
19906;DHT22;10115;50.906;4.438;2023-01-26T18:22:47;6.70;99.90
19906;DHT22;10115;50.906;4.438;2023-01-26T18:25:14;6.60;99.90
19906;DHT22;10115;50.906;4.438;2023-01-26T18:27:43;6.70;99.90
19906;DHT22;10115;50.906;4.438;2023-01-26T18:30:11;6.60;99.90
19906;DHT22;10115;50.906;4.438;2023-01-26T18:32:39;6.60;99.90